Time;durP1;ratioP1;P1;durP2;ratioP2;P2;SDS_P1;SDS_P2;PMS_P1;PMS_P2;Temp;Humidity;BMP_temperature;BMP_pressure;BME280_temperature;BME280_humidity;BME280_pressure;Samples;Min_cycle;Max_cycle;Signal;HPM_P1;HPM_P2
2022/08/25 00:01:49;;;;;;;12.68;4.90;;;;;;;19.87;85.64;99093.75;1720028;83;21003;-84
2022/08/25 00:04:17;;;;;;;17.20;5.42;;;;;;;19.79;86.33;99093.39;1720064;83;21057;-84
2022/08/25 00:06:45;;;;;;;14.45;5.35;;;;;;;19.72;86.65;99086.83;1720438;83;20982;-82
2022/08/25 00:09:15;;;;;;;7.42;5.05;;;;;;;19.66;86.99;99088.02;1717713;83;21018;-83
2022/08/25 00:11:44;;;;;;;13.15;4.97;;;;;;;19.64;86.94;99084.64;1711314;83;21013;-82
2022/08/25 00:14:16;;;;;;;9.78;5.10;;;;;;;19.60;86.67;99089.25;1711351;84;21031;-84
2022/08/25 00:16:43;;;;;;;12.53;4.67;;;;;;;19.58;85.92;99096.89;1714465;84;21008;-84
2022/08/25 00:19:15;;;;;;;8.88;5.00;;;;;;;19.55;87.00;99095.75;1687854;84;21058;-84
2022/08/25 00:21:44;;;;;;;14.13;5.40;;;;;;;19.50;87.27;99096.48;1690918;82;21016;-83
2022/08/25 00:24:14;;;;;;;11.20;5.40;;;;;;;19.44;88.74;99089.83;1702037;84;20973;-84
2022/08/25 00:26:45;;;;;;;8.18;4.80;;;;;;;19.41;88.11;99090.00;1707418;83;20987;-82
2022/08/25 00:29:12;;;;;;;13.08;5.53;;;;;;;19.38;87.13;99090.21;1711048;84;20983;-84
2022/08/25 00:31:40;;;;;;;12.00;5.30;;;;;;;19.34;87.04;99083.41;1710676;84;21016;-84
2022/08/25 00:34:13;;;;;;;11.30;5.15;;;;;;;19.24;87.42;99086.63;1711439;84;20990;-84
2022/08/25 00:36:40;;;;;;;12.07;4.72;;;;;;;19.22;87.49;99081.92;1694886;84;21014;-84
2022/08/25 00:39:09;;;;;;;15.68;5.12;;;;;;;19.18;87.79;99080.41;1707338;84;21253;-84
2022/08/25 00:41:38;;;;;;;11.38;5.33;;;;;;;19.17;87.83;99071.27;1710099;84;20964;-84
2022/08/25 00:44:08;;;;;;;15.15;6.47;;;;;;;19.18;88.82;99072.50;1724461;82;21078;-84
2022/08/25 00:46:40;;;;;;;12.75;5.58;;;;;;;19.19;89.24;99064.95;1709990;84;20999;-83
2022/08/25 00:49:15;;;;;;;13.48;5.28;;;;;;;19.16;88.80;99063.84;1709935;82;21061;-84
2022/08/25 00:51:50;;;;;;;13.53;5.37;;;;;;;19.13;89.24;99067.97;1709360;84;21022;-84
2022/08/25 00:54:27;;;;;;;12.88;5.78;;;;;;;19.15;90.12;99062.61;1709674;84;21003;-83
2022/08/25 00:56:57;;;;;;;9.70;5.97;;;;;;;19.16;88.57;99062.53;1710282;84;21023;-85
2022/08/25 00:59:25;;;;;;;13.00;5.92;;;;;;;19.17;89.68;99060.25;1731952;82;21001;-84
2022/08/25 01:01:53;;;;;;;10.75;5.70;;;;;;;19.20;90.19;99066.67;1711103;84;21034;-84
2022/08/25 01:04:21;;;;;;;9.55;5.12;;;;;;;19.22;89.93;99054.72;1691218;83;21018;-84
2022/08/25 01:06:49;;;;;;;13.22;5.92;;;;;;;19.23;89.25;99055.09;1709626;84;21027;-84
2022/08/25 01:09:17;;;;;;;14.68;5.70;;;;;;;19.19;88.62;99050.47;1710928;83;21037;-84
2022/08/25 01:11:46;;;;;;;17.65;6.22;;;;;;;19.11;88.36;99061.95;1702276;83;21025;-85
2022/08/25 01:14:17;;;;;;;13.93;5.70;;;;;;;19.05;90.85;99051.78;1695714;84;20974;-84
2022/08/25 01:16:45;;;;;;;12.05;5.62;;;;;;;19.04;90.04;99059.33;1708140;84;21039;-84
2022/08/25 01:19:14;;;;;;;12.15;6.22;;;;;;;18.97;88.79;99052.24;1681633;85;21035;-84
2022/08/25 01:21:46;;;;;;;11.43;6.05;;;;;;;18.93;89.33;99055.16;1696664;84;21000;-84
2022/08/25 01:24:45;;;;;;;12.68;5.47;;;;;;;18.85;88.84;99056.94;1678909;84;21036;-83
2022/08/25 01:27:13;;;;;;;15.28;6.28;;;;;;;18.79;90.28;99056.83;1700667;84;21004;-83
2022/08/25 01:29:41;;;;;;;19.48;8.25;;;;;;;18.79;90.19;99051.56;1701815;82;21015;-83
2022/08/25 01:32:12;;;;;;;18.67;6.67;;;;;;;18.78;90.65;99054.25;1707529;84;21077;-83
2022/08/25 01:34:41;;;;;;;14.63;7.60;;;;;;;18.76;90.92;99055.67;1694866;85;21027;-80
2022/08/25 01:37:12;;;;;;;11.90;7.22;;;;;;;18.77;90.82;99049.94;1708385;84;21036;-83
2022/08/25 01:39:41;;;;;;;16.57;6.83;;;;;;;18.75;90.83;99048.70;1706734;84;21023;-83
2022/08/25 01:42:45;;;;;;;12.47;6.22;;;;;;;18.74;90.04;99055.37;1696806;84;21055;-83
2022/08/25 01:45:11;;;;;;;;;;;;;;;18.66;91.35;99053.19;1617139;88;21058;-83
2022/08/25 01:47:38;;;;;;;15.53;6.75;;;;;;;18.65;92.43;99056.77;1720733;82;20131;-83
2022/08/25 01:50:06;;;;;;;14.18;6.85;;;;;;;18.62;91.96;99060.44;1736674;83;21036;-82
2022/08/25 01:52:50;;;;;;;13.35;6.58;;;;;;;18.61;92.79;99057.89;1732854;83;20988;-83
2022/08/25 01:55:17;;;;;;;15.88;6.92;;;;;;;18.66;93.36;99060.64;1722095;83;21496;-81
2022/08/25 01:57:45;;;;;;;14.70;7.10;;;;;;;18.70;93.68;99059.96;1732831;82;21071;-83
2022/08/25 02:00:14;;;;;;;13.50;6.85;;;;;;;18.75;94.81;99060.55;1741827;82;20991;-83
2022/08/25 02:02:43;;;;;;;15.15;7.28;;;;;;;18.78;93.57;99056.44;1714199;82;21099;-82
2022/08/25 02:05:12;;;;;;;10.35;6.08;;;;;;;18.77;93.62;99054.72;1714970;82;20963;-83
2022/08/25 02:07:41;;;;;;;11.22;6.67;;;;;;;18.81;93.86;99060.22;1696052;83;20969;-83
2022/08/25 02:10:11;;;;;;;13.08;5.92;;;;;;;18.87;94.08;99057.69;1715337;83;20983;-83
2022/08/25 02:12:38;;;;;;;11.38;6.40;;;;;;;18.91;93.73;99063.63;1714445;83;21030;-83
2022/08/25 02:15:08;;;;;;;10.40;5.78;;;;;;;18.91;93.12;99059.68;1714390;82;21007;-84
2022/08/25 02:17:35;;;;;;;9.80;5.25;;;;;;;18.92;92.62;99054.33;1714276;82;20994;-84
2022/08/25 02:20:08;;;;;;;8.35;5.25;;;;;;;18.90;92.44;99053.58;1713822;83;21006;-83
2022/08/25 02:22:34;;;;;;;10.10;5.43;;;;;;;18.90;92.90;99048.75;1715792;83;20990;-83
2022/08/25 02:25:01;;;;;;;12.78;5.15;;;;;;;18.91;93.33;99052.61;1735912;82;21213;-83
2022/08/25 02:27:28;;;;;;;7.78;4.78;;;;;;;18.95;93.55;99060.70;1695616;82;21559;-82
2022/08/25 02:29:55;;;;;;;15.80;4.90;;;;;;;18.97;92.32;99050.92;1714384;83;21004;-83
2022/08/25 02:32:22;;;;;;;10.55;4.50;;;;;;;18.93;92.24;99053.38;1713937;82;21834;-83
2022/08/25 02:34:49;;;;;;;8.90;5.20;;;;;;;18.95;92.70;99057.23;1715179;83;21481;-83
2022/08/25 02:37:15;;;;;;;13.85;5.83;;;;;;;18.99;93.14;99054.31;1714139;83;21003;-82
2022/08/25 02:39:42;;;;;;;9.33;5.47;;;;;;;19.00;92.78;99056.47;1713882;84;21059;-84
2022/08/25 02:42:09;;;;;;;11.35;5.75;;;;;;;18.99;92.39;99052.16;1713767;83;20982;-82
2022/08/25 02:44:35;;;;;;;7.65;4.78;;;;;;;18.99;91.78;99054.80;1713831;83;21003;-83
2022/08/25 02:47:03;;;;;;;11.35;5.90;;;;;;;19.01;91.18;99058.18;1714071;83;20998;-83
2022/08/25 02:49:30;;;;;;;11.22;5.78;;;;;;;18.91;91.15;99053.93;1714308;83;20974;-83
2022/08/25 02:51:59;;;;;;;12.45;6.80;;;;;;;18.88;91.25;99061.56;1715595;82;20999;-82
2022/08/25 02:54:27;;;;;;;17.37;7.05;;;;;;;18.86;90.79;99054.66;1735484;82;20989;-83
2022/08/25 02:56:54;;;;;;;14.33;7.03;;;;;;;18.84;92.39;99061.81;1715596;84;21058;-82
2022/08/25 02:59:21;;;;;;;17.77;7.40;;;;;;;18.82;91.18;99062.38;1717842;83;20999;-83
2022/08/25 03:01:47;;;;;;;14.03;6.78;;;;;;;18.84;93.24;99058.73;1718194;83;20962;-83
2022/08/25 03:04:14;;;;;;;14.80;6.85;;;;;;;18.88;93.05;99065.52;1719315;83;21503;-83
2022/08/25 03:06:41;;;;;;;18.10;7.12;;;;;;;18.87;92.19;99059.01;1718752;83;20975;-82
2022/08/25 03:09:08;;;;;;;20.65;7.45;;;;;;;18.87;92.94;99061.16;1714824;83;20976;-82
2022/08/25 03:11:37;;;;;;;26.45;7.58;;;;;;;18.90;92.59;99060.16;1709997;83;21010;-83
2022/08/25 03:14:06;;;;;;;17.80;7.45;;;;;;;18.87;92.75;99058.53;1710321;83;21007;-83
2022/08/25 03:16:34;;;;;;;19.70;7.53;;;;;;;18.90;93.07;99058.84;1710144;84;20994;-83
2022/08/25 03:19:01;;;;;;;14.75;6.97;;;;;;;18.94;92.41;99067.38;1709054;84;21032;-82
2022/08/25 03:21:29;;;;;;;16.12;7.62;;;;;;;18.94;93.38;99069.57;1710079;84;21047;-83
2022/08/25 03:23:58;;;;;;;16.25;6.95;;;;;;;18.95;92.81;99066.45;1710238;84;21005;-83
2022/08/25 03:29:10;;;;;;;16.23;7.28;;;;;;;18.98;93.20;99075.48;1718686;83;20993;-83
2022/08/25 03:31:37;;;;;;;12.28;6.62;;;;;;;19.01;93.41;99070.03;1719684;83;21494;-83
2022/08/25 03:34:04;;;;;;;11.18;6.37;;;;;;;19.01;93.68;99071.35;1718879;83;21030;-83
2022/08/25 03:36:31;;;;;;;17.98;6.67;;;;;;;19.01;93.62;99072.67;1691913;84;21470;-83
2022/08/25 03:38:58;;;;;;;10.50;6.10;;;;;;;19.03;93.01;99069.47;1717525;82;21033;-83
2022/08/25 03:41:29;;;;;;;11.88;5.95;;;;;;;18.98;91.95;99073.71;1718023;82;21431;-83
2022/08/25 03:43:56;;;;;;;13.35;6.03;;;;;;;18.98;93.62;99076.79;1719677;83;21111;-83
2022/08/25 03:46:27;;;;;;;10.48;5.92;;;;;;;19.00;93.50;99077.55;1717403;83;21002;-83
2022/08/25 03:48:56;;;;;;;12.63;6.20;;;;;;;19.02;94.06;99073.03;1718823;82;21038;-84
2022/08/25 03:51:30;;;;;;;10.05;5.28;;;;;;;19.04;93.16;99073.82;1710423;83;21005;-83
2022/08/25 03:53:58;;;;;;;10.88;5.60;;;;;;;19.04;93.35;99078.61;1711544;83;20958;-83
2022/08/25 03:56:30;;;;;;;13.28;5.92;;;;;;;19.07;93.98;99078.88;1699715;83;21435;-82
2022/08/25 03:58:55;;;;;;;10.55;5.85;;;;;;;19.08;93.66;99084.55;1722775;82;21062;-82
2022/08/25 04:01:24;;;;;;;10.45;5.20;;;;;;;19.09;94.49;99080.95;1732230;83;21045;-83
2022/08/25 04:03:51;;;;;;;13.68;5.87;;;;;;;19.13;94.58;99082.46;1735305;82;21025;-83
2022/08/25 04:06:20;;;;;;;13.13;5.47;;;;;;;19.16;94.21;99084.05;1734844;83;21006;-83
2022/08/25 04:08:47;;;;;;;14.58;6.30;;;;;;;19.16;93.22;99081.42;1733858;83;21182;-81
2022/08/25 04:11:17;;;;;;;13.05;6.08;;;;;;;19.15;92.50;99083.22;1710441;83;21088;-82
2022/08/25 04:13:46;;;;;;;18.77;8.00;;;;;;;19.11;92.07;99084.34;1712933;83;21501;-83
2022/08/25 04:16:16;;;;;;;18.35;7.55;;;;;;;19.04;91.82;99086.98;1749063;82;20972;-82
2022/08/25 04:18:44;;;;;;;16.62;7.37;;;;;;;19.01;91.47;99089.80;1734781;83;21010;-83
2022/08/25 04:21:12;;;;;;;19.25;7.42;;;;;;;18.97;91.22;99088.28;1736302;83;20992;-83
2022/08/25 04:23:42;;;;;;;23.75;7.92;;;;;;;18.87;91.80;99090.14;1735819;82;21065;-83
2022/08/25 04:26:13;;;;;;;21.00;6.58;;;;;;;18.86;92.28;99087.14;1735106;80;21006;-84
2022/08/25 04:28:41;;;;;;;16.37;6.37;;;;;;;18.80;91.32;99091.45;1736234;80;20998;-82
2022/08/25 04:31:11;;;;;;;18.70;7.12;;;;;;;18.73;92.19;99082.18;1735844;83;21029;-82
2022/08/25 04:33:38;;;;;;;15.00;6.75;;;;;;;18.71;92.74;99084.53;1734704;83;21001;-81
2022/08/25 04:36:10;;;;;;;17.40;6.65;;;;;;;18.70;93.58;99081.03;1716783;83;20971;-83
2022/08/25 04:38:39;;;;;;;14.43;7.05;;;;;;;18.74;93.12;99089.16;1735812;83;21105;-82
2022/08/25 04:41:08;;;;;;;19.52;7.67;;;;;;;18.77;92.65;99085.01;1738839;82;21050;-82
2022/08/25 04:43:36;;;;;;;16.30;7.45;;;;;;;18.77;92.72;99085.01;1712713;83;21068;-81
2022/08/25 04:46:09;;;;;;;14.58;7.03;;;;;;;18.72;92.07;99085.77;1751396;82;21026;-83
2022/08/25 04:48:38;;;;;;;15.40;6.20;;;;;;;18.72;92.13;99084.89;1750310;82;20972;-82
2022/08/25 04:51:08;;;;;;;16.02;6.30;;;;;;;18.78;93.41;99088.48;1750084;82;21054;-82
2022/08/25 04:53:36;;;;;;;10.30;5.97;;;;;;;18.87;93.57;99090.61;1751328;82;20999;-82
2022/08/25 04:56:09;;;;;;;11.05;6.03;;;;;;;18.93;93.35;99095.99;1727543;82;21019;-82
2022/08/25 04:58:39;;;;;;;9.58;5.47;;;;;;;19.00;93.13;99091.59;1748822;82;20993;-83
2022/08/25 05:01:14;;;;;;;10.45;5.33;;;;;;;19.02;92.21;99098.06;1766780;81;21036;-82
2022/08/25 05:03:42;;;;;;;10.38;5.22;;;;;;;18.99;92.56;99099.10;1745881;82;21028;-81
2022/08/25 05:06:09;;;;;;;11.78;5.55;;;;;;;19.04;92.48;99105.44;1746123;82;21111;-82
2022/08/25 05:08:36;;;;;;;13.30;5.70;;;;;;;19.12;92.87;99105.81;1747718;82;21036;-82
2022/08/25 05:11:09;;;;;;;15.08;5.78;;;;;;;19.23;92.68;99109.11;1747490;82;20991;-82
2022/08/25 05:13:36;;;;;;;13.65;6.20;;;;;;;19.21;92.17;99105.24;1746055;82;21016;-82
2022/08/25 05:16:04;;;;;;;12.73;6.35;;;;;;;19.26;92.45;99108.46;1747179;81;21055;-81
2022/08/25 05:18:33;;;;;;;14.33;6.85;;;;;;;19.31;92.20;99113.44;1745760;82;20972;-81
2022/08/25 05:21:08;;;;;;;13.58;7.20;;;;;;;19.34;91.70;99111.08;1745512;82;21012;-81
2022/08/25 05:23:35;;;;;;;15.13;6.30;;;;;;;19.31;91.80;99117.87;1746007;82;21031;-81
2022/08/25 05:26:11;;;;;;;15.30;7.00;;;;;;;19.31;92.07;99111.28;1746102;82;21040;-81
2022/08/25 05:28:40;;;;;;;14.55;7.47;;;;;;;19.39;92.25;99107.70;1746572;82;21022;-81
2022/08/25 05:31:11;;;;;;;16.25;6.83;;;;;;;19.48;92.30;99109.31;1745817;81;20999;-80
2022/08/25 05:33:40;;;;;;;21.40;6.97;;;;;;;19.54;92.02;99112.05;1745779;82;20988;-82
2022/08/25 05:36:10;;;;;;;15.70;7.33;;;;;;;19.56;91.46;99103.56;1746081;82;21022;-81
2022/08/25 05:38:37;;;;;;;14.68;6.97;;;;;;;19.59;91.32;99111.75;1748126;81;21062;-83
2022/08/25 05:41:11;;;;;;;15.10;7.03;;;;;;;19.59;91.27;99107.80;1735292;82;20960;-84
2022/08/25 05:43:40;;;;;;;23.70;8.45;;;;;;;19.64;91.37;99109.69;1743074;81;21012;-84
2022/08/25 05:46:08;;;;;;;20.32;9.38;;;;;;;19.67;91.08;99095.81;1744085;81;21020;-83
2022/08/25 05:48:35;;;;;;;20.62;9.00;;;;;;;19.74;90.94;99096.81;1742908;81;20999;-80
2022/08/25 05:51:05;;;;;;;18.65;9.08;;;;;;;19.74;91.16;99096.81;1747578;81;21193;-81
2022/08/25 05:53:33;;;;;;;18.73;8.48;;;;;;;19.77;91.10;99097.92;1738665;81;20999;-78
2022/08/25 05:56:00;;;;;;;23.62;8.58;;;;;;;19.78;90.81;99097.83;1739413;81;21110;-81
2022/08/25 05:58:28;;;;;;;18.57;8.63;;;;;;;19.89;91.13;99105.05;1739034;81;21047;-81
2022/08/25 06:02:39;;;;;;;22.67;9.83;;;;;;;19.94;90.59;99103.47;1724489;81;21009;-84
2022/08/25 06:03:26;;;;;;;14.53;8.93;;;;;;;20.02;90.62;99104.66;1725511;81;21339;-84
2022/08/25 06:05:53;;;;;;;18.62;9.80;;;;;;;20.14;90.49;99096.43;1732698;81;20984;-84
2022/08/25 06:08:19;;;;;;;19.30;10.10;;;;;;;20.18;90.16;99093.96;1728948;81;20991;-83
2022/08/25 06:10:52;;;;;;;18.70;9.20;;;;;;;20.18;89.43;99098.41;1731458;81;20984;-84
2022/08/25 06:13:19;;;;;;;16.48;9.10;;;;;;;20.23;89.34;99098.94;1722364;81;20995;-81
2022/08/25 06:15:45;;;;;;;19.00;10.88;;;;;;;20.27;89.42;99100.42;1727898;81;22212;-81
2022/08/25 06:18:12;;;;;;;15.75;8.10;;;;;;;20.38;89.30;99097.95;1731170;81;21024;-82
2022/08/25 06:20:39;;;;;;;15.80;7.80;;;;;;;20.51;88.70;99094.00;1729100;81;21067;-82
2022/08/25 06:23:05;;;;;;;19.32;8.88;;;;;;;20.57;88.58;99091.44;1736610;81;21027;-82
2022/08/25 06:25:32;;;;;;;21.97;9.85;;;;;;;20.60;87.83;99095.24;1731451;81;20960;-80
2022/08/25 06:27:59;;;;;;;18.55;9.35;;;;;;;20.51;87.79;99090.53;1728821;81;21031;-78
2022/08/25 06:30:26;;;;;;;12.80;7.90;;;;;;;20.51;87.90;99087.89;1722790;81;21050;-81
2022/08/25 06:32:53;;;;;;;19.10;8.23;;;;;;;20.48;87.89;99084.15;1736852;81;21040;-79
2022/08/25 06:35:20;;;;;;;18.80;10.65;;;;;;;20.50;88.10;99083.57;1726189;81;21070;-80
2022/08/25 06:37:47;;;;;;;17.12;9.40;;;;;;;20.57;88.36;99087.03;1735012;81;21071;-80
2022/08/25 06:40:15;;;;;;;18.95;8.85;;;;;;;20.70;88.26;99084.91;1734489;81;21078;-81
2022/08/25 06:42:44;;;;;;;19.57;8.65;;;;;;;20.73;87.91;99085.56;1733525;81;21099;-80
2022/08/25 06:45:11;;;;;;;17.98;8.63;;;;;;;20.81;88.05;99081.92;1728983;81;21678;-79
2022/08/25 06:47:38;;;;;;;19.23;9.58;;;;;;;20.96;88.04;99080.02;1729964;81;21112;-78
2022/08/25 06:50:05;;;;;;;23.35;11.22;;;;;;;21.10;87.44;99089.66;1729447;82;20964;-77
2022/08/25 06:52:32;;;;;;;32.00;20.17;;;;;;;21.11;86.61;99089.17;1730091;81;21027;-80
2022/08/25 06:54:59;;;;;;;24.57;14.58;;;;;;;21.18;87.03;99091.29;1718562;81;21140;-80
2022/08/25 06:57:26;;;;;;;17.90;9.43;;;;;;;21.30;86.98;99098.84;1729440;81;21004;-79
2022/08/25 06:59:53;;;;;;;23.00;12.55;;;;;;;21.42;87.07;99095.34;1731189;81;20984;-79
2022/08/25 07:02:20;;;;;;;22.73;9.75;;;;;;;21.57;86.77;99099.25;1673201;83;21092;-80
2022/08/25 07:04:46;;;;;;;14.30;8.45;;;;;;;21.68;86.33;99082.60;1732857;81;21067;-80
2022/08/25 07:07:13;;;;;;;12.60;8.05;;;;;;;21.77;85.67;99081.47;1732796;81;21523;-79
2022/08/25 07:09:40;;;;;;;14.65;7.72;;;;;;;21.83;85.71;99083.67;1734124;81;20973;-80
2022/08/25 07:12:07;;;;;;;11.35;6.53;;;;;;;21.92;84.55;99083.96;1726899;83;21070;-79
2022/08/25 07:14:35;;;;;;;13.35;6.75;;;;;;;21.91;85.06;99083.12;1712840;83;21173;-79
2022/08/25 07:17:03;;;;;;;14.60;6.50;;;;;;;22.01;84.75;99085.95;1732191;81;21011;-80
2022/08/25 07:19:29;;;;;;;12.73;6.28;;;;;;;22.05;84.77;99082.96;1730539;81;21000;-79
2022/08/25 07:21:56;;;;;;;11.68;6.10;;;;;;;22.16;85.00;99078.23;1728493;82;20991;-80
2022/08/25 07:24:23;;;;;;;14.68;6.03;;;;;;;22.31;85.13;99082.05;1713700;83;20981;-79
2022/08/25 07:26:50;;;;;;;11.80;6.15;;;;;;;22.43;84.96;99078.00;1718023;82;20999;-79
2022/08/25 07:29:21;;;;;;;10.68;5.83;;;;;;;22.49;83.88;99074.55;1714436;82;22155;-81
2022/08/25 07:31:49;;;;;;;12.88;6.33;;;;;;;22.55;83.81;99070.95;1745074;80;20968;-80
2022/08/25 07:37:06;;;;;;;12.65;6.05;;;;;;;22.71;82.73;99063.17;1745179;80;21038;-80
2022/08/25 07:39:31;;;;;;;13.58;5.08;;;;;;;22.74;82.16;99058.49;1747676;80;20972;-79
2022/08/25 07:41:59;;;;;;;14.15;6.12;;;;;;;22.82;81.49;99053.94;1745004;80;20983;-80
2022/08/25 07:44:26;;;;;;;13.45;5.50;;;;;;;22.88;81.11;99052.59;1743059;82;21006;-79
2022/08/25 07:46:53;;;;;;;11.08;5.42;;;;;;;22.91;79.63;99051.05;1740944;80;21078;-79
2022/08/25 07:49:21;;;;;;;9.13;5.10;;;;;;;22.97;80.05;99050.58;1743033;80;20983;-79
2022/08/25 07:51:48;;;;;;;11.28;5.08;;;;;;;23.07;79.93;99052.91;1745044;82;21051;-80
2022/08/25 07:54:15;;;;;;;10.45;4.60;;;;;;;23.16;79.29;99058.83;1748288;80;21324;-80
2022/08/25 07:56:42;;;;;;;10.68;4.28;;;;;;;23.24;79.00;99051.61;1742515;80;21011;-80
2022/08/25 07:59:09;;;;;;;12.28;4.55;;;;;;;23.34;78.24;99053.89;1742743;80;21039;-80
2022/08/25 08:01:37;;;;;;;15.65;4.65;;;;;;;23.39;77.91;99053.03;1743858;80;22006;-80
2022/08/25 08:04:04;;;;;;;11.75;5.37;;;;;;;23.47;78.06;99052.43;1746060;80;21059;-79
2022/08/25 08:06:31;;;;;;;12.90;4.05;;;;;;;23.56;78.06;99052.20;1741361;81;21055;-79
2022/08/25 08:08:58;;;;;;;11.50;4.15;;;;;;;23.67;77.76;99046.02;1738692;82;21043;-80
2022/08/25 08:11:31;;;;;;;13.72;3.60;;;;;;;23.75;77.08;99046.25;1734210;81;21066;-79
2022/08/25 08:14:00;;;;;;;10.80;3.25;;;;;;;23.81;75.72;99047.11;1739148;81;21035;-80
2022/08/25 08:16:28;;;;;;;12.47;3.40;;;;;;;23.91;75.87;99048.54;1742835;82;21059;-80
2022/08/25 08:18:57;;;;;;;11.40;5.70;;;;;;;24.01;75.47;99044.16;1746151;81;21030;-79
2022/08/25 08:21:33;;;;;;;9.45;3.35;;;;;;;24.11;75.67;99035.80;1734976;81;21106;-79
2022/08/25 08:24:00;;;;;;;13.28;4.12;;;;;;;24.24;75.92;99044.94;1742187;81;21023;-80
2022/08/25 08:26:28;;;;;;;11.08;3.77;;;;;;;24.38;75.34;99040.66;1741605;81;21070;-79
2022/08/25 08:28:54;;;;;;;8.03;3.83;;;;;;;24.49;73.15;99039.77;1739905;81;21542;-79
2022/08/25 08:31:25;;;;;;;11.83;3.67;;;;;;;24.60;73.41;99038.89;1748873;81;20960;-81
2022/08/25 08:33:54;;;;;;;9.83;3.50;;;;;;;24.70;71.78;99033.15;1738566;81;21031;-79
2022/08/25 08:36:22;;;;;;;10.20;3.40;;;;;;;24.81;72.27;99025.11;1735289;81;21034;-80
2022/08/25 08:38:49;;;;;;;29.57;14.47;;;;;;;24.89;72.16;99027.59;1738263;81;21014;-80
2022/08/25 08:44:48;;;;;;;13.00;4.15;;;;;;;25.11;72.21;99026.11;1734974;82;21034;-80
2022/08/25 08:47:49;;;;;;;13.58;4.65;;;;;;;25.27;70.08;99022.12;1742306;82;20997;-80
2022/08/25 08:50:52;;;;;;;16.60;3.95;;;;;;;25.38;66.70;99023.38;1733571;82;21035;-80
2022/08/25 08:53:47;;;;;;;11.03;4.40;;;;;;;25.46;67.89;99018.21;1734124;82;20992;-79
2022/08/25 08:56:38;;;;;;;11.50;3.90;;;;;;;25.54;66.61;99019.70;1744164;81;21040;-80
2022/08/25 08:59:13;;;;;;;14.40;3.72;;;;;;;25.58;66.44;99018.45;1739884;81;20980;-79
2022/08/25 09:01:55;;;;;;;11.63;3.85;;;;;;;25.68;66.81;99009.66;1761945;80;22342;-80
2022/08/25 09:04:46;;;;;;;15.03;3.72;;;;;;;25.75;65.12;99014.80;1737098;80;21051;-79
2022/08/25 09:07:21;;;;;;;18.52;4.25;;;;;;;25.82;64.93;99013.75;1742661;80;20979;-81
2022/08/25 09:09:49;;;;;;;15.23;3.92;;;;;;;25.90;64.80;99009.44;1741300;80;21007;-80
2022/08/25 09:12:42;;;;;;;13.30;4.28;;;;;;;25.99;64.31;99007.28;1743931;82;21078;-80
2022/08/25 09:18:53;;;;;;;20.23;4.17;;;;;;;26.25;64.63;99009.90;1746848;80;21082;-80
2022/08/25 09:22:03;;;;;;;21.95;4.35;;;;;;;26.35;62.04;99012.90;1744185;80;21523;-80
2022/08/25 09:24:50;;;;;;;16.37;4.15;;;;;;;26.38;59.11;99010.43;1728866;81;21525;-80
2022/08/25 09:27:50;;;;;;;16.95;3.72;;;;;;;26.52;59.48;99007.36;1728913;81;21041;-78
2022/08/25 09:30:20;;;;;;;20.10;3.42;;;;;;;26.58;58.87;98993.48;1644073;87;21107;-80
2022/08/25 09:32:52;;;;;;;16.75;3.67;;;;;;;26.69;60.67;98989.80;1631760;86;21068;-80
2022/08/25 09:35:26;;;;;;;18.77;3.70;;;;;;;26.81;58.43;98985.64;1664019;83;21093;-79
2022/08/25 09:38:03;;;;;;;18.10;4.20;;;;;;;26.81;58.43;98985.64;1739163;82;21015;-78
2022/08/25 09:40:35;;;;;;;18.70;3.58;;;;;;;26.86;59.13;98974.02;1732134;81;21060;-78
2022/08/25 09:43:07;;;;;;;10.63;3.72;;;;;;;27.01;59.09;98967.73;1723639;81;22231;-80
2022/08/25 09:45:48;;;;;;;18.62;4.87;;;;;;;27.12;58.23;98968.39;1728507;81;22217;-79
2022/08/25 09:48:36;;;;;;;11.22;3.70;;;;;;;27.20;58.31;98967.66;1728974;81;21046;-80
2022/08/25 09:51:25;;;;;;;11.63;3.95;;;;;;;27.31;58.40;98971.98;1735702;81;21997;-80
2022/08/25 09:54:15;;;;;;;19.40;3.80;;;;;;;27.43;55.88;98974.79;1737063;81;21011;-81
2022/08/25 09:57:00;;;;;;;22.60;3.55;;;;;;;27.53;56.69;98969.40;1728463;81;21017;-79
2022/08/25 09:59:35;;;;;;;11.05;4.08;;;;;;;27.55;54.58;98961.57;1727967;81;21038;-80
2022/08/25 10:02:07;;;;;;;23.57;3.80;;;;;;;27.65;53.69;98950.00;1703223;82;21487;-79
2022/08/25 10:04:37;;;;;;;17.48;3.95;;;;;;;27.72;51.52;98946.58;1695833;82;21018;-80
2022/08/25 10:07:31;;;;;;;19.57;3.35;;;;;;;27.84;52.82;98945.86;1705450;82;21554;-80
2022/08/25 10:10:06;;;;;;;20.95;3.67;;;;;;;27.95;50.79;98944.80;1702908;82;21080;-81
2022/08/25 10:12:40;;;;;;;19.27;3.65;;;;;;;28.03;52.12;98938.19;1704016;82;21015;-82
2022/08/25 10:15:27;;;;;;;22.10;4.00;;;;;;;28.16;50.86;98932.47;1703654;82;21004;-81
2022/08/25 10:17:55;;;;;;;16.85;3.67;;;;;;;28.20;51.71;98931.16;1703708;82;20980;-81
2022/08/25 10:20:26;;;;;;;24.52;3.55;;;;;;;28.32;51.37;98920.55;1707117;82;20975;-82
2022/08/25 10:23:10;;;;;;;19.95;3.67;;;;;;;28.42;51.07;98918.29;1705111;82;20981;-81
2022/08/25 10:25:44;;;;;;;12.07;3.47;;;;;;;28.53;50.16;98923.38;1706653;82;21017;-81
2022/08/25 10:28:22;;;;;;;26.10;3.87;;;;;;;28.66;48.86;98923.81;1711367;82;20988;-81
2022/08/25 10:31:11;;;;;;;14.95;3.33;;;;;;;28.75;49.50;98920.19;1711748;82;20979;-81
2022/08/25 10:33:57;;;;;;;18.85;3.50;;;;;;;28.86;45.91;98918.23;1706627;82;21083;-82
2022/08/25 10:36:44;;;;;;;20.30;4.25;;;;;;;28.97;46.90;98916.63;1705909;82;21059;-80
2022/08/25 10:39:19;;;;;;;25.30;4.62;;;;;;;29.13;47.15;98912.69;1685526;82;21010;-80
2022/08/25 10:42:12;;;;;;;14.33;3.50;;;;;;;29.24;45.31;98908.87;1698607;84;21112;-80
2022/08/25 10:47:50;;;;;;;20.50;3.70;;;;;;;29.52;46.01;98902.73;1707857;82;20999;-81
2022/08/25 10:50:46;;;;;;;16.57;3.87;;;;;;;29.60;44.15;98901.92;1704876;84;20979;-79
2022/08/25 10:53:30;;;;;;;16.77;3.75;;;;;;;29.71;44.00;98893.60;1708246;82;20999;-80
2022/08/25 10:56:22;;;;;;;13.95;3.15;;;;;;;29.80;42.85;98894.95;1707096;82;20951;-81
2022/08/25 10:59:05;;;;;;;17.05;3.80;;;;;;;29.94;44.33;98887.09;1703608;82;21008;-81
2022/08/25 11:02:01;;;;;;;12.20;3.20;;;;;;;30.14;44.56;98881.36;1713284;82;21049;-82
2022/08/25 11:04:54;;;;;;;16.62;3.47;;;;;;;30.35;43.01;98885.41;1710896;82;21565;-79
2022/08/25 11:07:28;;;;;;;;;;;;;;;30.46;39.76;98887.23;1717750;82;21474;-80
2022/08/25 11:09:59;;;;;;;8.90;2.80;;;;;;;30.54;36.78;98882.34;1709420;82;20141;-81
2022/08/25 11:12:37;;;;;;;16.62;2.98;;;;;;;30.62;38.81;98888.16;1710902;82;21061;-80
2022/08/25 11:15:15;;;;;;;15.05;3.30;;;;;;;30.66;38.73;98878.77;1715867;82;20965;-79
2022/08/25 11:18:00;;;;;;;16.52;3.98;;;;;;;30.76;37.24;98879.91;1710838;82;21489;-81
2022/08/25 11:20:35;;;;;;;18.23;3.52;;;;;;;30.90;39.87;98872.02;1715347;82;21044;-81
2022/08/25 11:23:25;;;;;;;15.05;3.67;;;;;;;31.07;36.73;98871.41;1711898;82;21031;-80
2022/08/25 11:26:08;;;;;;;15.95;3.10;;;;;;;31.17;37.89;98870.36;1713940;82;20988;-80
2022/08/25 11:28:58;;;;;;;17.75;3.42;;;;;;;31.27;36.91;98869.63;1712179;83;20968;-80
2022/08/25 11:31:26;;;;;;;13.72;3.22;;;;;;;31.46;37.20;98866.52;1709979;82;22133;-80
2022/08/25 11:33:55;;;;;;;15.18;3.67;;;;;;;31.59;36.60;98864.57;1710897;82;21556;-80
2022/08/25 11:36:43;;;;;;;18.77;3.42;;;;;;;31.72;36.21;98863.98;1694838;83;21671;-80
2022/08/25 11:39:18;;;;;;;12.18;3.30;;;;;;;31.89;37.18;98860.16;1716869;82;21026;-81
2022/08/25 11:42:29;;;;;;;19.45;3.12;;;;;;;32.09;35.53;98855.13;1706526;82;21057;-81
2022/08/25 11:45:33;;;;;;;21.10;3.05;;;;;;;32.20;36.23;98853.83;1714035;82;21116;-80
2022/08/25 11:48:41;;;;;;;22.73;3.75;;;;;;;32.38;36.92;98844.58;1707219;83;21117;-80
2022/08/25 11:51:13;;;;;;;21.70;3.77;;;;;;;32.55;35.41;98847.45;1716832;82;21716;-80
2022/08/25 11:53:43;;;;;;;25.60;3.52;;;;;;;32.74;35.45;98838.47;1709857;82;21634;-80
2022/08/25 11:56:31;;;;;;;17.75;3.37;;;;;;;32.85;35.54;98850.11;1697676;83;21028;-81
2022/08/25 11:58:58;;;;;;;15.80;3.47;;;;;;;33.02;34.96;98850.20;1712767;82;21029;-81
2022/08/25 12:01:48;;;;;;;21.33;3.98;;;;;;;33.04;32.43;98844.63;1708987;82;20991;-80
2022/08/25 12:04:40;;;;;;;12.47;3.10;;;;;;;33.12;31.62;98849.11;1702310;82;21072;-79
2022/08/25 12:07:15;;;;;;;31.33;4.40;;;;;;;33.15;30.59;98846.02;1699584;82;20963;-79